Alburnett, Iowa
Current Conditions -  °F | °C
As of 11:52 AM on Friday 31 Oct 2014 (Local Time) from KCID Reporting Station
Clear Clear  
Wind Chill: 28°   Ceiling: Unl
Heat Index: 38°   Visibility: 10mi
Dew Point: 21°   Wind: 18mph
Humidity: 51%   Direction: 10°N
Pressure: 30.41"   Gusts: 28mph
Location:  42.15°N, 91.62°W
Report Text: KCID 311652Z 01016G24KT 10SM CLR 03/M06 A3041 RMK AO2 SLP302 T00331061
Loading
Personal Weather Stations






























Interactive Weather Map
Tropical Storm Tracking
New forecast layout! Learn more

10-Day Weather Forecast

Advertisements
Track Severe Weather on mobile